createdAt,value
2022-07-29T00:00:08.171Z,77.04
2022-07-29T00:01:19.449Z,77.50
2022-07-29T00:02:21.365Z,77.34
2022-07-29T00:03:22.981Z,77.33
2022-07-29T00:04:24.605Z,77.80
2022-07-29T00:05:26.263Z,77.75
2022-07-29T00:06:27.765Z,78.34
2022-07-29T00:07:29.290Z,78.45
2022-07-29T00:08:30.800Z,78.11
2022-07-29T00:09:32.841Z,78.21
2022-07-29T00:10:43.978Z,78.17
2022-07-29T00:11:45.559Z,78.41
2022-07-29T00:12:47.256Z,78.89
2022-07-29T00:13:50.981Z,78.87
2022-07-29T00:14:55.266Z,79.20
2022-07-29T00:15:56.843Z,79.38
2022-07-29T00:17:06.089Z,79.65
2022-07-29T00:18:07.608Z,79.38
2022-07-29T00:19:09.175Z,79.84
2022-07-29T00:20:12.529Z,79.19
2022-07-29T00:21:14.125Z,79.03
2022-07-29T00:22:15.764Z,78.72
2022-07-29T00:23:17.282Z,79.58
2022-07-29T00:24:19.228Z,79.68
2022-07-29T00:25:20.834Z,80.09
2022-07-29T00:26:22.408Z,79.84
2022-07-29T00:27:24.012Z,80.52
2022-07-29T00:28:25.571Z,80.06
2022-07-29T00:29:35.009Z,80.26
2022-07-29T00:30:36.755Z,80.22
2022-07-29T00:31:38.352Z,79.99
2022-07-29T00:32:40.223Z,79.69
2022-07-29T00:33:41.671Z,80.17
2022-07-29T00:34:43.168Z,79.91
2022-07-29T00:35:44.712Z,79.59
2022-07-29T00:36:46.230Z,80.02
2022-07-29T00:37:47.722Z,80.29
2022-07-29T00:38:50.654Z,80.22
2022-07-29T00:39:52.289Z,80.81
2022-07-29T00:40:53.831Z,80.53
2022-07-29T00:41:55.481Z,80.66
2022-07-29T00:42:57.117Z,80.75
2022-07-29T00:43:58.639Z,80.81
2022-07-29T00:45:00.235Z,81.11
2022-07-29T00:46:01.997Z,81.28
2022-07-29T00:47:03.676Z,81.32
2022-07-29T00:48:05.771Z,81.51
2022-07-29T00:49:07.777Z,81.97
2022-07-29T00:50:11.313Z,81.77
2022-07-29T00:51:13.228Z,82.32
2022-07-29T00:52:16.946Z,82.41
2022-07-29T00:53:20.336Z,82.50
2022-07-29T00:54:21.864Z,82.68
2022-07-29T00:55:23.560Z,82.48
2022-07-29T00:56:25.134Z,82.30
2022-07-29T00:57:26.777Z,82.66
2022-07-29T00:58:28.469Z,82.58
2022-07-29T00:59:34.551Z,82.50
2022-07-29T01:00:36.952Z,82.85
2022-07-29T01:01:38.498Z,82.88
2022-07-29T01:02:40.214Z,82.45
2022-07-29T01:03:41.710Z,82.61
2022-07-29T01:04:43.277Z,82.51
2022-07-29T01:05:50.788Z,82.71
2022-07-29T01:06:55.408Z,82.78
2022-07-29T01:07:58.402Z,82.14
2022-07-29T01:09:00.679Z,82.27
2022-07-29T01:10:07.272Z,82.87
2022-07-29T01:11:09.429Z,82.68
2022-07-29T01:12:11.730Z,83.04
2022-07-29T01:13:15.704Z,83.09
2022-07-29T01:14:17.992Z,82.97
2022-07-29T01:15:20.026Z,82.90
2022-07-29T01:16:33.568Z,82.73
2022-07-29T01:17:52.430Z,83.06
2022-07-29T01:19:02.271Z,83.36
2022-07-29T01:20:12.712Z,82.84
2022-07-29T01:21:23.262Z,83.22
2022-07-29T01:22:37.048Z,83.63
2022-07-29T01:24:03.163Z,83.57
2022-07-29T01:25:10.613Z,83.64
2022-07-29T01:26:24.084Z,83.73
2022-07-29T01:27:46.158Z,83.88
2022-07-29T01:28:54.845Z,83.75
2022-07-29T01:29:59.086Z,84.18
2022-07-29T01:31:03.992Z,84.38
2022-07-29T01:32:27.853Z,84.08
2022-07-29T01:33:39.266Z,84.50
2022-07-29T01:35:01.634Z,84.38
2022-07-29T01:37:24.845Z,84.98
2022-07-29T01:38:29.030Z,84.81
2022-07-29T01:39:39.523Z,84.48
2022-07-29T01:40:48.727Z,85.02
2022-07-29T01:42:02.800Z,84.42
2022-07-29T01:43:11.137Z,84.74
2022-07-29T01:44:18.515Z,84.91
2022-07-29T01:45:31.469Z,85.11
2022-07-29T01:46:36.669Z,85.05
2022-07-29T01:47:44.294Z,84.94
2022-07-29T01:48:55.990Z,84.87
2022-07-29T01:50:00.648Z,84.74
2022-07-29T01:51:24.971Z,85.06
2022-07-29T01:52:40.686Z,85.16
2022-07-29T01:54:07.658Z,85.24
2022-07-29T01:55:15.107Z,85.30
2022-07-29T01:56:19.493Z,85.37
2022-07-29T01:57:25.998Z,85.40
2022-07-29T01:58:29.460Z,85.52
2022-07-29T01:59:32.224Z,85.79
2022-07-29T02:00:35.388Z,85.76
2022-07-29T02:01:38.526Z,86.31
2022-07-29T02:02:43.278Z,85.91
2022-07-29T02:03:46.951Z,85.98
2022-07-29T02:04:51.344Z,86.02
2022-07-29T02:05:54.112Z,86.43
2022-07-29T02:06:59.594Z,86.48
2022-07-29T02:08:03.051Z,86.47
2022-07-29T02:09:08.502Z,85.62
2022-07-29T02:10:12.946Z,85.58
2022-07-29T02:11:14.881Z,86.05
2022-07-29T02:12:19.225Z,85.82
2022-07-29T02:13:24.298Z,86.27
2022-07-29T02:14:29.505Z,86.41
2022-07-29T02:15:34.775Z,86.29
2022-07-29T02:16:39.589Z,85.92
2022-07-29T02:17:54.939Z,86.40
2022-07-29T02:18:58.540Z,86.28
2022-07-29T02:20:04.105Z,86.31
2022-07-29T02:21:06.385Z,86.76
2022-07-29T02:22:19.302Z,87.17
2022-07-29T02:23:23.595Z,87.37
2022-07-29T02:24:27.283Z,87.29
2022-07-29T02:25:36.743Z,87.21
2022-07-29T02:26:42.334Z,87.39
2022-07-29T02:27:45.293Z,87.59
2022-07-29T02:28:47.894Z,87.96
2022-07-29T02:29:51.131Z,87.70
2022-07-29T02:30:56.379Z,87.97
2022-07-29T02:31:59.848Z,87.30
2022-07-29T02:33:02.560Z,87.21
2022-07-29T02:34:07.985Z,87.56
2022-07-29T02:35:10.982Z,87.61
2022-07-29T02:36:12.676Z,87.59
2022-07-29T02:37:17.348Z,87.92
2022-07-29T02:38:20.994Z,87.58
2022-07-29T02:39:25.291Z,87.87
2022-07-29T02:40:26.959Z,88.22
2022-07-29T02:41:38.176Z,88.46
2022-07-29T02:42:43.182Z,88.09
2022-07-29T02:43:47.749Z,88.29
2022-07-29T02:44:49.774Z,88.16
2022-07-29T02:45:53.937Z,88.46
2022-07-29T02:47:05.350Z,88.59
2022-07-29T02:48:13.607Z,88.57
2022-07-29T02:49:39.252Z,88.42
2022-07-29T02:50:51.019Z,88.21
2022-07-29T02:51:57.378Z,86.89
2022-07-29T02:53:03.248Z,87.60
2022-07-29T02:54:08.667Z,87.84
2022-07-29T02:55:24.014Z,87.61
2022-07-29T02:56:28.997Z,88.24
2022-07-29T02:57:54.069Z,88.48
2022-07-29T02:59:03.946Z,88.59
2022-07-29T03:00:08.658Z,88.80
2022-07-29T03:01:20.977Z,89.09
2022-07-29T03:02:24.725Z,89.05
2022-07-29T03:03:30.797Z,88.63
2022-07-29T03:04:34.528Z,89.12
2022-07-29T03:05:36.165Z,88.43
2022-07-29T03:06:39.570Z,89.36
2022-07-29T03:07:42.990Z,89.50
2022-07-29T03:08:46.018Z,89.63
2022-07-29T03:09:48.080Z,89.83
2022-07-29T03:10:50.141Z,89.25
2022-07-29T03:11:52.071Z,88.85
2022-07-29T03:12:54.974Z,89.09
2022-07-29T03:13:56.950Z,88.71
2022-07-29T03:15:00.203Z,89.11
2022-07-29T03:16:02.505Z,89.51
2022-07-29T03:17:04.583Z,88.87
2022-07-29T03:18:07.379Z,89.49
2022-07-29T03:19:09.044Z,89.51
2022-07-29T03:20:12.363Z,89.31
2022-07-29T03:21:14.045Z,89.30
2022-07-29T03:22:15.915Z,89.34
2022-07-29T03:23:21.735Z,89.35
2022-07-29T03:24:27.940Z,88.63
2022-07-29T03:25:29.553Z,88.77
2022-07-29T03:26:31.210Z,88.24
2022-07-29T03:27:32.747Z,88.99
2022-07-29T03:28:34.276Z,88.91
2022-07-29T03:29:35.793Z,88.87
2022-07-29T03:30:37.414Z,88.78
2022-07-29T03:31:40.385Z,89.20
2022-07-29T03:32:45.321Z,88.67
2022-07-29T03:33:47.358Z,88.90
2022-07-29T03:34:48.886Z,89.05
2022-07-29T03:35:50.398Z,89.10
2022-07-29T03:36:51.952Z,88.83
2022-07-29T03:37:53.455Z,88.91
2022-07-29T03:38:56.606Z,88.63
2022-07-29T03:39:59.198Z,88.52
2022-07-29T03:41:06.712Z,88.51
2022-07-29T03:42:11.333Z,88.64
2022-07-29T03:43:15.746Z,88.89
2022-07-29T03:44:20.510Z,89.11
2022-07-29T03:45:23.826Z,89.09
2022-07-29T03:46:29.543Z,89.15
2022-07-29T03:47:49.653Z,89.19
2022-07-29T03:48:59.475Z,88.88
2022-07-29T03:50:05.933Z,89.31
2022-07-29T03:51:12.212Z,88.77
2022-07-29T03:52:14.276Z,89.18
2022-07-29T03:53:16.797Z,88.76
2022-07-29T03:54:18.889Z,88.57
2022-07-29T03:55:21.140Z,88.45
2022-07-29T03:56:23.830Z,88.13
2022-07-29T03:57:29.237Z,88.16
2022-07-29T03:58:31.637Z,87.79
2022-07-29T03:59:34.427Z,87.70
2022-07-29T04:00:37.471Z,87.41
2022-07-29T04:01:39.860Z,87.41
2022-07-29T04:02:41.639Z,87.03
2022-07-29T04:03:43.298Z,86.97
2022-07-29T04:04:44.903Z,86.87
2022-07-29T04:05:58.097Z,86.65
2022-07-29T04:06:59.650Z,86.30
2022-07-29T04:08:01.254Z,85.95
2022-07-29T04:09:02.869Z,86.12
2022-07-29T04:10:04.727Z,85.93
2022-07-29T04:11:06.890Z,86.25
2022-07-29T04:12:08.811Z,86.06
2022-07-29T04:13:10.294Z,85.54
2022-07-29T04:14:11.847Z,85.31
2022-07-29T04:15:13.395Z,85.06
2022-07-29T04:16:15.031Z,84.88
2022-07-29T04:17:16.622Z,84.48
2022-07-29T04:18:18.156Z,84.87
2022-07-29T04:19:19.720Z,84.00
2022-07-29T04:20:21.220Z,83.73
2022-07-29T04:21:23.003Z,83.67
2022-07-29T04:22:24.528Z,83.08
2022-07-29T04:23:26.653Z,84.03
2022-07-29T04:24:28.606Z,84.27
2022-07-29T04:25:30.124Z,84.49
2022-07-29T04:26:31.713Z,84.49
2022-07-29T04:27:33.197Z,84.41
2022-07-29T04:29:36.321Z,84.60
2022-07-29T04:30:57.654Z,84.78
2022-07-29T04:31:59.288Z,85.12
2022-07-29T04:33:05.630Z,85.07
2022-07-29T04:34:07.667Z,85.52
2022-07-29T04:35:09.295Z,85.40
2022-07-29T04:36:28.413Z,85.22
2022-07-29T04:37:31.181Z,84.97
2022-07-29T04:38:32.817Z,84.88
2022-07-29T04:39:34.369Z,85.42
2022-07-29T04:40:35.838Z,85.14
2022-07-29T04:41:40.352Z,84.82
2022-07-29T04:42:46.812Z,84.93
2022-07-29T04:43:49.733Z,84.74
2022-07-29T04:44:51.406Z,84.80
2022-07-29T04:45:53.464Z,84.91
2022-07-29T04:46:54.976Z,84.65
2022-07-29T04:47:56.795Z,84.64
2022-07-29T04:48:58.341Z,84.39
2022-07-29T04:49:59.940Z,84.26
2022-07-29T04:51:01.431Z,84.10
2022-07-29T04:52:03.028Z,83.65
2022-07-29T04:53:04.538Z,83.20
2022-07-29T04:54:06.140Z,80.94
2022-07-29T04:55:08.071Z,78.54
2022-07-29T04:56:09.743Z,77.02
2022-07-29T04:57:11.254Z,76.44
2022-07-29T04:58:12.839Z,75.92
2022-07-29T04:59:14.381Z,73.82
2022-07-29T05:00:16.032Z,72.14
2022-07-29T05:01:17.679Z,71.61
2022-07-29T05:02:19.458Z,69.69
2022-07-29T05:03:21.322Z,69.58
2022-07-29T05:04:22.901Z,68.40
2022-07-29T05:05:24.459Z,67.56
2022-07-29T05:06:25.994Z,67.68
2022-07-29T05:07:27.634Z,67.10
2022-07-29T05:08:29.125Z,67.03
2022-07-29T05:09:30.708Z,64.94
2022-07-29T05:10:32.289Z,64.55
2022-07-29T05:11:33.886Z,62.78
2022-07-29T05:12:35.761Z,61.25
2022-07-29T05:13:45.853Z,59.23
2022-07-29T05:14:48.675Z,57.12
2022-07-29T05:15:50.639Z,56.52
2022-07-29T05:16:52.201Z,55.25
2022-07-29T05:17:53.675Z,54.13
2022-07-29T05:18:55.168Z,54.22
2022-07-29T05:19:56.682Z,53.22
2022-07-29T05:20:58.268Z,53.84
2022-07-29T05:21:59.783Z,54.14
2022-07-29T05:23:02.887Z,55.50
2022-07-29T05:24:04.781Z,55.99
2022-07-29T05:25:09.155Z,56.96
2022-07-29T05:26:10.966Z,57.99
2022-07-29T05:27:12.441Z,57.97
2022-07-29T05:28:14.044Z,58.14
2022-07-29T05:29:45.019Z,56.85
2022-07-29T05:30:37.775Z,55.04
2022-07-29T05:31:39.746Z,53.91
2022-07-29T05:32:41.661Z,53.33
2022-07-29T05:33:43.365Z,52.84
2022-07-29T05:34:50.748Z,52.44
2022-07-29T05:35:56.206Z,51.09
2022-07-29T05:37:00.135Z,50.35
2022-07-29T05:38:01.884Z,50.11
2022-07-29T05:39:03.609Z,49.95
2022-07-29T05:40:06.182Z,48.99
2022-07-29T05:41:07.716Z,48.88
2022-07-29T05:42:10.592Z,49.07
2022-07-29T05:43:12.049Z,48.56
2022-07-29T05:44:13.834Z,47.90
2022-07-29T05:45:15.554Z,46.78
2022-07-29T05:46:17.157Z,46.60
2022-07-29T05:47:18.840Z,46.10
2022-07-29T05:48:20.394Z,45.83
2022-07-29T05:49:27.030Z,46.73
2022-07-29T05:50:29.102Z,46.89
2022-07-29T05:51:30.587Z,48.26
2022-07-29T05:52:32.119Z,49.13
2022-07-29T05:53:33.590Z,50.07
2022-07-29T05:54:35.590Z,50.38
2022-07-29T05:55:37.237Z,50.66
2022-07-29T05:56:40.931Z,50.83
2022-07-29T05:57:42.503Z,50.46
2022-07-29T05:58:44.116Z,50.20
2022-07-29T05:59:46.251Z,50.00
2022-07-29T06:00:48.070Z,50.14
2022-07-29T06:01:52.288Z,49.98
2022-07-29T06:02:54.644Z,49.46
2022-07-29T06:03:56.601Z,48.67
2022-07-29T06:04:58.364Z,49.49
2022-07-29T06:05:59.928Z,50.04
2022-07-29T06:07:01.605Z,50.38
2022-07-29T06:08:03.550Z,51.04
2022-07-29T06:09:12.117Z,50.08
2022-07-29T06:10:14.608Z,50.24
2022-07-29T06:11:16.138Z,49.75
2022-07-29T06:12:17.694Z,48.41
2022-07-29T06:13:19.278Z,47.90
2022-07-29T06:14:20.781Z,47.07
2022-07-29T06:15:22.371Z,46.71
2022-07-29T06:16:30.170Z,46.38
2022-07-29T06:17:32.217Z,46.33
2022-07-29T06:18:33.759Z,45.51
2022-07-29T06:19:35.971Z,46.24
2022-07-29T06:20:37.784Z,46.83
2022-07-29T06:21:46.473Z,45.52
2022-07-29T06:22:48.027Z,45.28
2022-07-29T06:23:49.663Z,44.30
2022-07-29T06:24:51.184Z,42.82
2022-07-29T06:25:52.826Z,42.72
2022-07-29T06:26:54.442Z,42.49
2022-07-29T06:27:56.073Z,42.11
2022-07-29T06:28:57.572Z,42.35
2022-07-29T06:29:59.155Z,42.45
2022-07-29T06:31:01.095Z,43.11
2022-07-29T06:32:02.764Z,42.23
2022-07-29T06:33:04.601Z,42.23
2022-07-29T06:34:06.343Z,42.64
2022-07-29T06:35:37.861Z,44.24
2022-07-29T06:36:31.071Z,45.95
2022-07-29T06:37:32.695Z,46.32
2022-07-29T06:38:42.020Z,47.49
2022-07-29T06:39:43.655Z,48.50
2022-07-29T06:40:46.200Z,49.36
2022-07-29T06:41:48.673Z,50.61
2022-07-29T06:42:50.278Z,51.11
2022-07-29T06:43:54.517Z,51.78
2022-07-29T06:44:57.980Z,52.09
2022-07-29T06:46:00.965Z,52.09
2022-07-29T06:47:03.350Z,53.36
2022-07-29T06:48:05.399Z,51.94
2022-07-29T06:49:06.934Z,52.11
2022-07-29T06:50:09.027Z,51.77
2022-07-29T06:51:14.597Z,51.55
2022-07-29T06:52:16.136Z,52.25
2022-07-29T06:53:17.649Z,52.05
2022-07-29T06:54:19.417Z,51.91
2022-07-29T06:55:24.633Z,51.44
2022-07-29T06:56:27.077Z,51.83
2022-07-29T06:57:28.600Z,51.60
2022-07-29T06:58:30.825Z,51.53
2022-07-29T06:59:35.733Z,50.70
2022-07-29T07:00:38.037Z,48.61
2022-07-29T07:01:42.325Z,48.08
2022-07-29T07:02:44.134Z,47.64
2022-07-29T07:03:45.774Z,46.17
2022-07-29T07:04:47.257Z,44.59
2022-07-29T07:05:52.530Z,44.00
2022-07-29T07:06:54.478Z,44.45
2022-07-29T07:07:56.140Z,43.56
2022-07-29T07:08:57.741Z,43.28
2022-07-29T07:09:59.385Z,43.19
2022-07-29T07:11:01.105Z,42.07
2022-07-29T07:12:02.785Z,41.24
2022-07-29T07:13:05.546Z,40.88
2022-07-29T07:14:07.473Z,40.33
2022-07-29T07:15:09.361Z,39.20
2022-07-29T07:16:10.964Z,39.41
2022-07-29T07:17:12.515Z,38.45
2022-07-29T07:18:14.327Z,38.61
2022-07-29T07:19:15.837Z,37.68
2022-07-29T07:20:18.091Z,37.70
2022-07-29T07:21:19.764Z,37.13
2022-07-29T07:22:21.341Z,37.99
2022-07-29T07:23:22.863Z,38.01
2022-07-29T07:24:24.578Z,39.32
2022-07-29T07:25:26.367Z,38.72
2022-07-29T07:26:28.215Z,38.64
2022-07-29T07:27:29.857Z,38.89
2022-07-29T07:28:31.491Z,38.64
2022-07-29T07:29:33.589Z,39.26
2022-07-29T07:30:35.207Z,39.25
2022-07-29T07:31:37.855Z,40.11
2022-07-29T07:32:39.604Z,40.04
2022-07-29T07:33:41.131Z,40.75
2022-07-29T07:34:43.766Z,40.57
2022-07-29T07:35:45.297Z,41.93
2022-07-29T07:36:46.842Z,42.39
2022-07-29T07:37:48.375Z,42.89
2022-07-29T07:38:50.047Z,43.20
2022-07-29T07:39:52.655Z,43.76
2022-07-29T07:40:54.256Z,44.86
2022-07-29T07:41:55.848Z,45.43
2022-07-29T07:42:57.408Z,46.02
2022-07-29T07:43:59.012Z,46.16
2022-07-29T07:45:16.204Z,46.90
2022-07-29T07:46:18.332Z,47.76
2022-07-29T07:47:20.772Z,48.19
2022-07-29T07:48:23.807Z,47.58
2022-07-29T07:49:25.443Z,47.28
2022-07-29T07:50:27.141Z,45.98
2022-07-29T07:51:29.069Z,46.44
2022-07-29T07:52:30.831Z,46.02
2022-07-29T07:53:32.643Z,46.33
2022-07-29T07:54:34.188Z,45.35
2022-07-29T07:56:07.972Z,45.84
2022-07-29T07:57:02.842Z,44.98
2022-07-29T07:58:04.377Z,44.71
2022-07-29T07:59:05.887Z,45.55
2022-07-29T08:00:07.974Z,45.80
2022-07-29T08:01:13.745Z,46.80
2022-07-29T08:02:15.529Z,48.20
2022-07-29T08:03:17.518Z,49.18
2022-07-29T08:04:23.486Z,48.76
2022-07-29T08:05:28.480Z,48.96
2022-07-29T08:06:30.038Z,48.67
2022-07-29T08:07:34.132Z,48.75
2022-07-29T08:08:35.734Z,47.88
2022-07-29T08:09:37.271Z,46.91
2022-07-29T08:10:38.959Z,46.59
2022-07-29T08:11:40.454Z,46.57
2022-07-29T08:12:53.841Z,46.79
2022-07-29T08:13:55.652Z,46.41
2022-07-29T08:14:57.201Z,46.18
2022-07-29T08:15:59.822Z,45.97
2022-07-29T08:17:01.552Z,46.05
2022-07-29T08:18:08.426Z,45.63
2022-07-29T08:19:10.962Z,46.15
2022-07-29T08:20:12.513Z,45.91
2022-07-29T08:21:16.892Z,46.58
2022-07-29T08:22:18.478Z,46.10
2022-07-29T08:23:20.322Z,46.53
2022-07-29T08:24:22.983Z,46.69
2022-07-29T08:25:24.536Z,47.10
2022-07-29T08:26:26.140Z,46.49
2022-07-29T08:27:42.863Z,45.91
2022-07-29T08:28:46.173Z,46.14
2022-07-29T08:29:47.880Z,46.17
2022-07-29T08:30:49.360Z,45.77
2022-07-29T08:31:51.392Z,46.22
2022-07-29T08:32:54.793Z,46.74
2022-07-29T08:33:57.256Z,47.11
2022-07-29T08:34:58.963Z,46.98
2022-07-29T08:36:00.484Z,46.07
2022-07-29T08:37:02.129Z,45.55
2022-07-29T08:38:03.896Z,45.76
2022-07-29T08:39:06.205Z,45.48
2022-07-29T08:40:08.090Z,46.13
2022-07-29T08:41:09.641Z,45.52
2022-07-29T08:42:12.156Z,46.22
2022-07-29T08:43:14.072Z,45.52
2022-07-29T08:44:22.331Z,45.19
2022-07-29T08:45:44.307Z,45.25
2022-07-29T08:46:50.548Z,45.83
2022-07-29T08:47:53.262Z,45.62
2022-07-29T08:48:56.264Z,45.63
2022-07-29T08:49:57.818Z,44.05
2022-07-29T08:51:00.093Z,43.97
2022-07-29T08:52:01.754Z,44.21
2022-07-29T08:53:04.406Z,43.72
2022-07-29T08:54:06.406Z,45.38
2022-07-29T08:55:10.299Z,46.60
2022-07-29T08:56:16.227Z,46.50
2022-07-29T08:57:19.181Z,47.05
2022-07-29T08:58:23.222Z,47.01
2022-07-29T08:59:28.514Z,46.64
2022-07-29T09:00:32.906Z,45.87
2022-07-29T09:01:45.119Z,46.01
2022-07-29T09:02:51.131Z,46.35
2022-07-29T09:03:56.410Z,45.91
2022-07-29T09:05:01.296Z,45.61
2022-07-29T09:06:04.246Z,43.95
2022-07-29T09:07:07.132Z,44.05
2022-07-29T09:08:09.118Z,44.14
2022-07-29T09:09:10.769Z,45.60
2022-07-29T09:10:12.374Z,45.81
2022-07-29T09:11:15.131Z,46.69
2022-07-29T09:12:28.882Z,45.94
2022-07-29T09:13:31.583Z,46.42
2022-07-29T09:14:33.282Z,45.62
2022-07-29T09:15:34.978Z,44.69
2022-07-29T09:17:06.731Z,44.11
2022-07-29T09:18:20.434Z,43.45
2022-07-29T09:19:31.390Z,43.96
2022-07-29T09:20:33.009Z,44.62
2022-07-29T09:21:41.712Z,44.76
2022-07-29T09:22:46.214Z,45.30
2022-07-29T09:24:13.354Z,44.65
2022-07-29T09:25:15.073Z,43.45
2022-07-29T09:26:16.725Z,44.48
2022-07-29T09:27:18.153Z,45.07
2022-07-29T09:28:19.764Z,45.63
2022-07-29T09:29:24.425Z,46.19
2022-07-29T09:30:31.419Z,45.24
2022-07-29T09:31:36.488Z,45.25
2022-07-29T09:33:13.436Z,45.50
2022-07-29T09:34:17.599Z,45.62
2022-07-29T09:35:24.568Z,45.05
2022-07-29T09:36:26.139Z,46.16
2022-07-29T09:37:30.377Z,45.32
2022-07-29T09:38:32.512Z,45.00
2022-07-29T09:39:39.887Z,44.90
2022-07-29T09:40:41.366Z,44.88
2022-07-29T09:41:51.034Z,44.78
2022-07-29T09:42:53.009Z,43.79
2022-07-29T09:43:56.562Z,43.80
2022-07-29T09:44:58.123Z,43.42
2022-07-29T09:46:18.227Z,43.49
2022-07-29T09:47:20.363Z,43.25
2022-07-29T09:48:24.718Z,43.81
2022-07-29T09:49:26.839Z,43.77
2022-07-29T09:50:42.004Z,43.60
2022-07-29T09:51:43.557Z,43.82
2022-07-29T09:52:50.318Z,43.53
2022-07-29T09:53:53.093Z,43.53
2022-07-29T09:55:09.404Z,42.75
2022-07-29T09:56:11.284Z,42.09
2022-07-29T09:57:31.034Z,43.23
2022-07-29T09:58:33.331Z,42.55
2022-07-29T09:59:34.873Z,43.25
2022-07-29T10:00:43.394Z,42.60
2022-07-29T10:01:44.947Z,42.34
2022-07-29T10:02:47.878Z,41.78
2022-07-29T10:03:53.528Z,41.82
2022-07-29T10:04:55.290Z,41.05
2022-07-29T10:06:12.352Z,41.34
2022-07-29T10:07:14.031Z,40.99
2022-07-29T10:08:26.336Z,41.18
2022-07-29T10:09:28.438Z,41.09
2022-07-29T10:10:35.267Z,41.01
2022-07-29T10:11:49.349Z,41.01
2022-07-29T10:12:57.094Z,41.23
2022-07-29T10:14:03.321Z,42.16
2022-07-29T10:15:05.439Z,42.47
2022-07-29T10:16:07.216Z,42.31
2022-07-29T10:17:11.750Z,42.56
2022-07-29T10:18:15.174Z,42.85
2022-07-29T10:19:17.933Z,42.69
2022-07-29T10:20:20.775Z,43.39
2022-07-29T10:21:35.990Z,42.96
2022-07-29T10:22:54.215Z,43.10
2022-07-29T10:24:00.949Z,43.12
2022-07-29T10:25:03.998Z,43.12
2022-07-29T10:26:05.670Z,43.31
2022-07-29T10:27:09.193Z,43.00
2022-07-29T10:28:15.807Z,42.25
2022-07-29T10:29:17.935Z,42.21
2022-07-29T10:30:21.044Z,41.54
2022-07-29T10:31:30.789Z,41.72
2022-07-29T10:32:54.368Z,42.18
2022-07-29T10:34:11.050Z,42.63
2022-07-29T10:35:39.834Z,42.65
2022-07-29T10:36:59.909Z,41.58
2022-07-29T10:38:26.968Z,41.27
2022-07-29T10:39:49.695Z,42.04
2022-07-29T10:41:03.323Z,43.01
2022-07-29T10:42:19.885Z,42.42
2022-07-29T10:43:28.134Z,43.21
2022-07-29T10:44:31.967Z,43.26
2022-07-29T10:45:33.583Z,42.26
2022-07-29T10:46:37.245Z,42.90
2022-07-29T10:47:38.963Z,42.93
2022-07-29T10:49:15.242Z,42.72
2022-07-29T10:50:17.528Z,42.47
2022-07-29T10:51:19.228Z,42.12
2022-07-29T10:52:20.912Z,42.60
2022-07-29T10:53:51.647Z,42.69
2022-07-29T10:54:53.354Z,42.57
2022-07-29T10:55:56.003Z,43.01
2022-07-29T10:57:18.727Z,41.51
2022-07-29T10:58:24.132Z,42.32
2022-07-29T10:59:25.746Z,41.63
2022-07-29T11:00:33.839Z,41.96
2022-07-29T11:01:37.247Z,42.13
2022-07-29T11:02:40.948Z,41.89
2022-07-29T11:03:49.641Z,41.70
2022-07-29T11:04:52.379Z,41.67
2022-07-29T11:05:56.498Z,41.01
2022-07-29T11:07:06.879Z,41.54
2022-07-29T11:08:19.550Z,41.46
2022-07-29T11:09:25.681Z,41.75
2022-07-29T11:10:36.680Z,41.92
2022-07-29T11:11:40.466Z,41.95
2022-07-29T11:12:45.674Z,41.70
2022-07-29T11:13:53.181Z,41.90
2022-07-29T11:14:54.866Z,41.58
2022-07-29T11:15:58.699Z,41.27
2022-07-29T11:17:05.931Z,41.43
2022-07-29T11:18:15.032Z,41.15
2022-07-29T11:19:29.976Z,40.92
2022-07-29T11:20:34.742Z,40.43
2022-07-29T11:21:54.322Z,40.96
2022-07-29T11:23:17.831Z,39.29
2022-07-29T11:24:28.887Z,39.63
2022-07-29T11:25:42.914Z,39.50
2022-07-29T11:27:14.322Z,39.29
2022-07-29T11:28:23.210Z,38.94
2022-07-29T11:29:27.462Z,39.29
2022-07-29T11:30:52.815Z,39.10
2022-07-29T11:32:09.750Z,39.48
2022-07-29T11:33:54.316Z,40.12
2022-07-29T11:37:07.844Z,39.80
2022-07-29T11:38:31.626Z,40.04
2022-07-29T11:39:37.220Z,39.15
2022-07-29T11:40:39.286Z,38.45
2022-07-29T11:41:44.164Z,38.47
2022-07-29T11:42:47.037Z,38.11
2022-07-29T11:43:59.921Z,38.73
2022-07-29T11:45:41.537Z,38.72
2022-07-29T11:46:50.766Z,38.07
2022-07-29T11:47:54.798Z,38.32
2022-07-29T11:48:57.060Z,38.11
2022-07-29T11:50:00.532Z,38.23
2022-07-29T11:51:11.572Z,38.43
2022-07-29T11:52:15.064Z,38.24
2022-07-29T11:53:16.554Z,39.01
2022-07-29T11:54:27.866Z,39.39
2022-07-29T11:55:32.623Z,39.42
2022-07-29T11:56:39.906Z,39.68
2022-07-29T11:58:04.050Z,40.94
2022-07-29T11:59:08.391Z,41.16
2022-07-29T12:00:12.726Z,41.79
2022-07-29T12:01:18.547Z,40.70
2022-07-29T12:02:37.520Z,39.96
2022-07-29T12:03:39.796Z,39.86
2022-07-29T12:06:18.070Z,42.86
2022-07-29T12:07:03.199Z,40.59
2022-07-29T12:07:03.649Z,39.04
2022-07-29T12:07:35.173Z,43.78
2022-07-29T12:08:42.599Z,44.38
2022-07-29T12:09:51.267Z,44.50
2022-07-29T12:10:53.741Z,44.46
2022-07-29T12:12:04.770Z,44.52
2022-07-29T12:13:07.565Z,44.39
2022-07-29T12:14:25.734Z,44.46
2022-07-29T12:15:45.586Z,44.97
2022-07-29T12:16:48.576Z,44.45
2022-07-29T12:17:50.366Z,44.38
2022-07-29T12:19:02.433Z,44.11
2022-07-29T12:20:05.595Z,44.70
2022-07-29T12:21:07.125Z,43.89
2022-07-29T12:22:08.697Z,43.88
2022-07-29T12:23:11.038Z,43.62
2022-07-29T12:24:15.060Z,43.83
2022-07-29T12:25:32.800Z,43.67
2022-07-29T12:26:35.756Z,44.13
2022-07-29T12:27:40.533Z,44.35
2022-07-29T12:28:42.304Z,43.79
2022-07-29T12:30:03.893Z,45.05
2022-07-29T12:31:05.761Z,44.79
2022-07-29T12:32:14.580Z,45.26
2022-07-29T12:33:25.209Z,44.24
2022-07-29T12:34:29.513Z,44.66
2022-07-29T12:35:31.268Z,44.28
2022-07-29T12:36:33.411Z,44.83
2022-07-29T12:37:40.945Z,44.95
2022-07-29T12:38:44.277Z,44.49
2022-07-29T12:39:46.050Z,44.95
2022-07-29T12:40:49.027Z,44.91
2022-07-29T12:41:50.578Z,45.29
2022-07-29T12:43:07.409Z,45.50
2022-07-29T12:44:08.915Z,45.94
2022-07-29T12:45:10.716Z,45.71
2022-07-29T12:46:14.338Z,45.53
2022-07-29T12:47:16.911Z,46.10
2022-07-29T12:48:36.233Z,45.61
2022-07-29T12:49:38.043Z,45.70
2022-07-29T12:50:54.618Z,46.18
2022-07-29T12:51:56.513Z,46.42
2022-07-29T12:53:09.645Z,45.69
2022-07-29T12:54:14.666Z,46.25
2022-07-29T12:55:16.265Z,46.39
2022-07-29T12:57:50.139Z,46.89
2022-07-29T12:58:51.732Z,47.02
2022-07-29T13:00:11.415Z,47.57
2022-07-29T13:01:17.335Z,47.56
2022-07-29T13:02:22.834Z,47.46
2022-07-29T13:03:24.516Z,47.61
2022-07-29T13:04:33.802Z,47.94
2022-07-29T13:05:47.171Z,47.33
2022-07-29T13:07:00.050Z,47.21
2022-07-29T13:08:20.465Z,47.82
2022-07-29T13:09:24.380Z,47.35
2022-07-29T13:10:26.177Z,47.31
2022-07-29T13:11:36.439Z,46.63
2022-07-29T13:12:38.877Z,47.21
2022-07-29T13:14:05.694Z,47.35
2022-07-29T13:15:16.066Z,47.12
2022-07-29T13:16:17.617Z,47.31
2022-07-29T13:17:21.616Z,46.28
2022-07-29T13:18:31.092Z,46.23
2022-07-29T13:19:35.662Z,45.67
2022-07-29T13:20:37.326Z,45.68
2022-07-29T13:21:40.288Z,46.20
2022-07-29T13:22:43.007Z,45.56
2022-07-29T13:23:44.534Z,45.68
2022-07-29T13:24:51.169Z,45.71
2022-07-29T13:25:52.662Z,46.32
2022-07-29T13:26:55.628Z,46.77
2022-07-29T13:27:57.268Z,46.14
2022-07-29T13:28:58.856Z,45.95
2022-07-29T13:30:03.540Z,46.50
2022-07-29T13:31:05.838Z,45.76
2022-07-29T13:32:07.479Z,45.68
2022-07-29T13:33:08.974Z,45.19
2022-07-29T13:34:10.506Z,45.75
2022-07-29T13:35:11.987Z,45.29
2022-07-29T13:36:13.475Z,45.73
2022-07-29T13:37:15.513Z,45.33
2022-07-29T13:38:17.052Z,45.27
2022-07-29T13:39:18.506Z,44.83
2022-07-29T13:40:20.005Z,45.12
2022-07-29T13:41:21.535Z,44.49
2022-07-29T13:42:24.129Z,44.67
2022-07-29T13:43:25.606Z,44.59
2022-07-29T13:44:27.189Z,45.24
2022-07-29T13:45:29.107Z,45.16
2022-07-29T13:46:30.854Z,44.48
2022-07-29T13:47:33.376Z,44.46
2022-07-29T13:48:35.260Z,44.33
2022-07-29T13:49:36.793Z,44.45
2022-07-29T13:50:38.412Z,43.53
2022-07-29T13:51:39.994Z,43.97
2022-07-29T13:52:41.568Z,43.95
2022-07-29T13:53:43.079Z,44.06
2022-07-29T13:54:44.706Z,43.33
2022-07-29T13:55:46.205Z,43.40
2022-07-29T13:56:48.777Z,43.17
2022-07-29T13:57:50.350Z,43.21
2022-07-29T13:58:52.058Z,43.40
2022-07-29T13:59:54.547Z,44.36
2022-07-29T14:00:56.913Z,44.94
2022-07-29T14:01:58.806Z,45.18
2022-07-29T14:03:00.625Z,44.39